createdAt,value
2022-11-16T00:01:39.227Z,5.70
2022-11-16T00:04:05.995Z,5.70
2022-11-16T00:06:32.754Z,5.70
2022-11-16T00:09:20.543Z,5.70
2022-11-16T00:11:53.325Z,5.70
2022-11-16T00:14:21.507Z,5.60
2022-11-16T00:16:48.231Z,5.60
2022-11-16T00:19:15.068Z,5.60
2022-11-16T00:21:41.819Z,5.60
2022-11-16T00:24:12.672Z,5.60
2022-11-16T00:26:39.580Z,5.60
2022-11-16T00:29:06.468Z,5.60
2022-11-16T00:31:33.119Z,5.60
2022-11-16T00:33:59.773Z,5.60
2022-11-16T00:36:26.426Z,5.60
2022-11-16T00:38:55.801Z,5.60
2022-11-16T00:41:22.786Z,5.60
2022-11-16T00:43:49.435Z,5.60
2022-11-16T00:46:16.173Z,5.60
2022-11-16T00:48:42.845Z,5.60
2022-11-16T00:51:09.527Z,5.60
2022-11-16T00:53:36.704Z,5.50
2022-11-16T00:56:03.555Z,5.50
2022-11-16T00:58:30.517Z,5.50
2022-11-16T01:00:57.232Z,5.50
2022-11-16T01:03:23.874Z,5.50
2022-11-16T01:05:50.491Z,5.60
2022-11-16T01:08:17.117Z,5.60
2022-11-16T01:10:43.848Z,5.60
2022-11-16T01:13:11.435Z,5.60
2022-11-16T01:15:38.126Z,5.60
2022-11-16T01:18:04.992Z,5.60
2022-11-16T01:20:31.745Z,5.50
2022-11-16T01:22:58.442Z,5.50
2022-11-16T01:25:25.152Z,5.50
2022-11-16T01:27:51.877Z,5.50
2022-11-16T01:30:18.648Z,5.50
2022-11-16T01:32:45.336Z,5.50
2022-11-16T01:35:18.402Z,5.50
2022-11-16T01:37:45.255Z,5.50
2022-11-16T01:40:14.047Z,5.50
2022-11-16T01:42:40.780Z,5.40
2022-11-16T01:45:41.165Z,5.40
2022-11-16T01:48:10.273Z,5.40
2022-11-16T01:50:38.342Z,5.40
2022-11-16T01:53:07.356Z,5.40
2022-11-16T01:55:37.018Z,5.40
2022-11-16T01:58:04.491Z,5.40
2022-11-16T02:00:31.549Z,5.40
2022-11-16T02:02:58.239Z,5.50
2022-11-16T02:05:38.187Z,5.50
2022-11-16T02:08:51.706Z,5.50
2022-11-16T02:11:49.892Z,5.40
2022-11-16T02:14:43.176Z,5.50
2022-11-16T02:17:37.740Z,5.50
2022-11-16T02:20:45.895Z,5.50
2022-11-16T02:23:18.318Z,5.50
2022-11-16T02:26:14.179Z,5.50
2022-11-16T02:29:09.984Z,5.50
2022-11-16T02:31:42.032Z,5.50
2022-11-16T02:34:11.975Z,5.60
2022-11-16T02:36:41.971Z,5.60
2022-11-16T02:39:14.555Z,5.60
2022-11-16T02:41:44.126Z,5.60
2022-11-16T02:44:24.889Z,5.70
2022-11-16T02:46:56.420Z,5.70
2022-11-16T02:49:25.019Z,5.60
2022-11-16T02:51:53.291Z,5.70
2022-11-16T02:54:21.883Z,5.60
2022-11-16T02:57:12.187Z,5.70
2022-11-16T02:59:44.152Z,5.80
2022-11-16T03:02:31.678Z,5.80
2022-11-16T03:05:31.877Z,5.80
2022-11-16T03:08:14.798Z,5.80
2022-11-16T03:11:03.115Z,5.80
2022-11-16T03:13:33.503Z,5.80
2022-11-16T03:16:05.349Z,5.70
2022-11-16T03:18:32.482Z,5.80
2022-11-16T03:21:10.955Z,5.90
2022-11-16T03:23:37.954Z,5.90
2022-11-16T03:26:08.223Z,5.90
2022-11-16T03:29:02.123Z,5.80
2022-11-16T03:31:34.913Z,5.90
2022-11-16T03:34:06.859Z,5.90
2022-11-16T03:36:36.734Z,5.90
2022-11-16T03:39:10.481Z,5.90
2022-11-16T03:41:41.388Z,5.90
2022-11-16T03:44:10.577Z,5.90
2022-11-16T03:46:37.639Z,5.90
2022-11-16T03:49:05.743Z,5.90
2022-11-16T03:51:32.429Z,5.90
2022-11-16T03:53:59.128Z,6.00
2022-11-16T03:56:26.055Z,5.90
2022-11-16T03:58:52.740Z,6.00
2022-11-16T04:01:19.553Z,6.00
2022-11-16T04:03:46.365Z,6.00
2022-11-16T04:06:31.700Z,6.00
2022-11-16T04:09:30.557Z,6.00
2022-11-16T04:12:16.093Z,6.00
2022-11-16T04:15:01.212Z,6.00
2022-11-16T04:17:46.717Z,6.00
2022-11-16T04:20:33.488Z,6.00
2022-11-16T04:23:26.845Z,6.10
2022-11-16T04:25:53.729Z,6.20
2022-11-16T04:28:24.168Z,6.10
2022-11-16T04:31:15.269Z,6.10
2022-11-16T04:34:00.833Z,6.20
2022-11-16T04:36:46.358Z,6.10
2022-11-16T04:39:13.210Z,6.20
2022-11-16T04:41:58.437Z,6.20
2022-11-16T04:44:45.052Z,6.20
2022-11-16T04:47:11.736Z,6.20
2022-11-16T04:49:38.384Z,6.20
2022-11-16T04:52:05.018Z,6.30
2022-11-16T04:54:31.696Z,6.30
2022-11-16T04:56:58.340Z,6.30
2022-11-16T04:59:25.411Z,6.30
2022-11-16T05:02:10.007Z,6.30
2022-11-16T05:04:37.692Z,6.30
2022-11-16T05:07:10.539Z,6.30
2022-11-16T05:09:43.093Z,6.30
2022-11-16T05:12:11.566Z,6.30
2022-11-16T05:14:38.265Z,6.30
2022-11-16T05:17:04.910Z,6.30
2022-11-16T05:19:50.103Z,6.30
2022-11-16T05:22:16.795Z,6.40
2022-11-16T05:24:43.551Z,6.40
2022-11-16T05:27:12.993Z,6.40
2022-11-16T05:29:39.809Z,6.30
2022-11-16T05:32:07.404Z,6.40
2022-11-16T05:34:34.309Z,6.40
2022-11-16T05:37:01.486Z,6.40
2022-11-16T05:39:28.296Z,6.40
2022-11-16T05:41:56.048Z,6.40
2022-11-16T05:44:22.771Z,6.40
2022-11-16T05:46:49.647Z,6.40
2022-11-16T05:49:17.026Z,6.40
2022-11-16T05:51:45.386Z,6.40
2022-11-16T05:54:14.424Z,6.40
2022-11-16T05:56:41.337Z,6.50
2022-11-16T05:59:11.235Z,6.50
2022-11-16T06:01:42.591Z,6.40
2022-11-16T06:04:09.785Z,6.40
2022-11-16T06:06:36.710Z,6.40
2022-11-16T06:09:03.957Z,6.40
2022-11-16T06:11:35.732Z,6.40
2022-11-16T06:14:03.030Z,6.50
2022-11-16T06:16:29.797Z,6.50
2022-11-16T06:18:56.465Z,6.50
2022-11-16T06:21:23.605Z,6.50
2022-11-16T06:23:50.378Z,6.50
2022-11-16T06:26:17.119Z,6.50
2022-11-16T06:28:44.747Z,6.50
2022-11-16T06:31:11.351Z,6.50
2022-11-16T06:33:38.044Z,6.50
2022-11-16T06:36:04.975Z,6.50
2022-11-16T06:38:31.977Z,6.50
2022-11-16T06:40:59.405Z,6.50
2022-11-16T06:43:26.619Z,6.50
2022-11-16T06:45:56.761Z,6.50
2022-11-16T06:48:23.494Z,6.50
2022-11-16T06:50:52.090Z,6.50
2022-11-16T06:53:20.887Z,6.50
2022-11-16T06:55:49.219Z,6.50
2022-11-16T06:58:16.259Z,6.50
2022-11-16T07:00:43.005Z,6.50
2022-11-16T07:03:10.002Z,6.50
2022-11-16T07:05:39.924Z,6.50
2022-11-16T07:08:06.617Z,6.50
2022-11-16T07:10:33.406Z,6.50
2022-11-16T07:13:03.346Z,6.50
2022-11-16T07:15:30.434Z,6.60
2022-11-16T07:17:57.087Z,6.50
2022-11-16T07:20:23.992Z,6.60
2022-11-16T07:22:50.753Z,6.60
2022-11-16T07:25:17.489Z,6.50
2022-11-16T07:27:44.148Z,6.50
2022-11-16T07:30:11.364Z,6.60
2022-11-16T07:32:39.826Z,6.50
2022-11-16T07:35:06.928Z,6.60
2022-11-16T07:37:33.577Z,6.60
2022-11-16T07:40:00.250Z,6.60
2022-11-16T07:42:26.986Z,6.60
2022-11-16T07:44:53.626Z,6.60
2022-11-16T07:47:20.268Z,6.60
2022-11-16T07:49:48.760Z,6.70
2022-11-16T07:52:15.459Z,6.60
2022-11-16T07:54:42.383Z,6.60
2022-11-16T07:57:09.078Z,6.60
2022-11-16T07:59:35.725Z,6.60
2022-11-16T08:02:02.451Z,6.60
2022-11-16T08:04:29.156Z,6.60
2022-11-16T08:06:55.816Z,6.60
2022-11-16T08:09:22.571Z,6.60
2022-11-16T08:11:50.928Z,6.60
2022-11-16T08:14:19.126Z,6.60
2022-11-16T08:16:45.930Z,6.60
2022-11-16T08:19:12.671Z,6.60
2022-11-16T08:21:39.363Z,6.60
2022-11-16T08:24:06.312Z,6.60
2022-11-16T08:26:33.060Z,6.60
2022-11-16T08:28:59.787Z,6.60
2022-11-16T08:31:28.428Z,6.60
2022-11-16T08:33:55.547Z,6.60
2022-11-16T08:36:22.519Z,6.60
2022-11-16T08:38:50.725Z,6.70
2022-11-16T08:41:18.197Z,6.70
2022-11-16T08:43:47.081Z,6.60
2022-11-16T08:46:14.752Z,6.60
2022-11-16T08:48:41.751Z,6.60
2022-11-16T08:51:19.981Z,6.70
2022-11-16T08:53:49.072Z,6.70
2022-11-16T08:56:17.765Z,6.70
2022-11-16T08:58:46.726Z,6.60
2022-11-16T09:01:17.891Z,6.60
2022-11-16T09:03:45.256Z,6.60
2022-11-16T09:06:13.031Z,6.50
2022-11-16T09:08:41.742Z,6.60
2022-11-16T09:11:10.956Z,6.50
2022-11-16T09:13:37.875Z,6.50
2022-11-16T09:16:05.485Z,6.50
2022-11-16T09:18:32.752Z,6.50
2022-11-16T09:20:59.875Z,6.50
2022-11-16T09:23:26.567Z,6.50
2022-11-16T09:25:53.592Z,6.50
2022-11-16T09:28:21.790Z,6.50
2022-11-16T09:30:50.962Z,6.50
2022-11-16T09:33:18.068Z,6.50
2022-11-16T09:35:44.969Z,6.60
2022-11-16T09:38:16.036Z,6.60
2022-11-16T09:40:47.372Z,6.50
2022-11-16T09:43:47.770Z,6.50
2022-11-16T09:46:22.899Z,6.50
2022-11-16T09:48:50.848Z,6.50
2022-11-16T09:51:21.050Z,6.60
2022-11-16T09:53:55.238Z,6.60
2022-11-16T09:56:23.389Z,6.60
2022-11-16T09:59:19.567Z,6.60
2022-11-16T10:02:05.785Z,6.60
2022-11-16T10:04:51.412Z,6.50
2022-11-16T10:07:41.935Z,6.60
2022-11-16T10:10:17.453Z,6.60
2022-11-16T10:13:17.883Z,6.60
2022-11-16T10:16:14.284Z,6.50
2022-11-16T10:18:56.059Z,6.50
2022-11-16T10:21:26.504Z,6.50
2022-11-16T10:24:05.121Z,6.50
2022-11-16T10:26:45.768Z,6.50
2022-11-16T10:30:02.319Z,6.50
2022-11-16T10:32:31.913Z,6.50
2022-11-16T10:35:01.359Z,6.50
2022-11-16T10:37:31.912Z,6.60
2022-11-16T10:39:59.386Z,6.60
2022-11-16T10:42:36.134Z,6.50
2022-11-16T10:45:24.375Z,6.50
2022-11-16T10:48:06.108Z,6.60
2022-11-16T10:50:43.912Z,6.60
2022-11-16T10:53:15.377Z,6.70
2022-11-16T10:55:42.264Z,6.70
2022-11-16T10:58:09.125Z,6.70
2022-11-16T11:00:49.499Z,6.70
2022-11-16T11:03:30.468Z,6.70
2022-11-16T11:05:57.265Z,6.70
2022-11-16T11:08:30.451Z,6.70
2022-11-16T11:11:03.298Z,6.70
2022-11-16T11:13:30.043Z,6.70
2022-11-16T11:16:17.673Z,6.70
2022-11-16T11:18:45.708Z,6.70
2022-11-16T11:21:19.332Z,6.70
2022-11-16T11:23:50.723Z,6.70
2022-11-16T11:26:49.141Z,6.80
2022-11-16T11:29:36.139Z,6.80
2022-11-16T11:32:13.116Z,6.80
2022-11-16T11:34:42.795Z,6.80
2022-11-16T11:37:35.289Z,6.80
2022-11-16T11:40:23.920Z,6.80
2022-11-16T11:42:58.223Z,6.80
2022-11-16T11:45:36.863Z,6.80
2022-11-16T11:48:32.116Z,6.80
2022-11-16T11:51:05.140Z,6.80
2022-11-16T11:53:50.183Z,6.90
2022-11-16T11:56:17.792Z,6.90
2022-11-16T11:58:45.456Z,6.90
2022-11-16T12:01:29.992Z,6.90
2022-11-16T12:04:12.004Z,7.00
2022-11-16T12:07:03.243Z,7.00
2022-11-16T12:09:54.417Z,7.00
2022-11-16T12:12:33.411Z,7.00
2022-11-16T12:15:05.772Z,6.90
2022-11-16T12:17:44.511Z,6.90
2022-11-16T12:20:28.182Z,7.00
2022-11-16T12:23:12.611Z,7.00
2022-11-16T12:25:54.470Z,7.00
2022-11-16T12:28:51.533Z,7.10
2022-11-16T12:31:51.221Z,7.10
2022-11-16T12:34:41.138Z,7.00
2022-11-16T12:37:20.859Z,7.10
2022-11-16T12:40:23.648Z,7.00
2022-11-16T12:42:53.238Z,7.00
2022-11-16T12:45:31.871Z,7.00
2022-11-16T12:48:32.170Z,7.00
2022-11-16T12:51:01.643Z,7.00
2022-11-16T12:53:49.449Z,7.00
2022-11-16T12:56:58.851Z,7.00
2022-11-16T12:59:28.514Z,7.00
2022-11-16T13:02:19.234Z,7.00
2022-11-16T13:05:01.298Z,7.00
2022-11-16T13:07:37.401Z,6.90
2022-11-16T13:10:17.279Z,7.00
2022-11-16T13:12:47.621Z,7.00
2022-11-16T13:15:20.656Z,7.00
2022-11-16T13:17:57.479Z,7.00
2022-11-16T13:20:58.226Z,7.00
2022-11-16T13:23:31.109Z,7.00
2022-11-16T13:26:01.792Z,7.00
2022-11-16T13:28:56.952Z,7.00
2022-11-16T13:31:41.951Z,7.00
2022-11-16T13:34:25.813Z,7.00
2022-11-16T13:36:52.498Z,7.00
2022-11-16T13:39:40.155Z,7.00
2022-11-16T13:42:12.380Z,7.10
2022-11-16T13:44:39.436Z,7.00
2022-11-16T13:47:18.767Z,7.10
2022-11-16T13:49:56.612Z,7.10
2022-11-16T13:52:28.728Z,7.00
2022-11-16T13:55:23.174Z,7.00
2022-11-16T13:57:52.285Z,7.10
2022-11-16T14:00:39.779Z,7.00
2022-11-16T14:03:15.713Z,7.00
2022-11-16T14:05:49.233Z,7.00
2022-11-16T14:08:25.060Z,7.00
2022-11-16T14:10:51.681Z,7.00
2022-11-16T14:13:39.799Z,7.00
2022-11-16T14:16:21.753Z,7.00
2022-11-16T14:19:01.119Z,7.00
2022-11-16T14:21:48.961Z,7.00
2022-11-16T14:24:32.913Z,7.00
2022-11-16T14:27:30.744Z,6.90
2022-11-16T14:30:19.236Z,6.90
2022-11-16T14:32:54.986Z,6.90
2022-11-16T14:35:39.721Z,6.90
2022-11-16T14:38:27.790Z,6.90
2022-11-16T14:40:59.772Z,6.90
2022-11-16T14:43:30.188Z,6.90
2022-11-16T14:46:00.900Z,6.90
2022-11-16T14:48:28.779Z,6.90
2022-11-16T14:51:19.185Z,6.80
2022-11-16T14:53:49.902Z,6.90
2022-11-16T14:56:19.158Z,6.90
2022-11-16T14:58:51.868Z,6.90
2022-11-16T15:01:21.189Z,6.90
2022-11-16T15:04:09.348Z,6.90
2022-11-16T15:06:48.591Z,6.90
2022-11-16T15:09:40.006Z,6.90
2022-11-16T15:12:43.843Z,6.90
2022-11-16T15:15:10.495Z,6.90
2022-11-16T15:17:42.397Z,6.90
2022-11-16T15:20:13.298Z,6.80
2022-11-16T15:22:42.294Z,6.80
2022-11-16T15:25:40.133Z,6.80
2022-11-16T15:28:17.735Z,6.80
2022-11-16T15:30:51.633Z,6.80
2022-11-16T15:33:23.926Z,6.80
2022-11-16T15:35:50.881Z,6.70
2022-11-16T15:38:19.932Z,6.80
2022-11-16T15:40:56.519Z,6.80
2022-11-16T15:43:31.055Z,6.90
2022-11-16T15:45:59.248Z,6.90
2022-11-16T15:48:27.307Z,6.80
2022-11-16T15:51:12.372Z,6.80
2022-11-16T15:53:49.977Z,6.80
2022-11-16T15:56:19.051Z,6.80
2022-11-16T15:58:46.926Z,6.70
2022-11-16T16:01:14.793Z,6.80
2022-11-16T16:04:01.297Z,6.80
2022-11-16T16:06:46.698Z,6.80
2022-11-16T16:09:31.051Z,6.90
2022-11-16T16:12:19.973Z,6.90
2022-11-16T16:14:50.738Z,6.80
2022-11-16T16:17:29.366Z,6.80
2022-11-16T16:19:59.103Z,6.80
2022-11-16T16:22:29.466Z,6.80
2022-11-16T16:24:56.524Z,6.80
2022-11-16T16:27:28.644Z,6.80
2022-11-16T16:29:57.790Z,6.80
2022-11-16T16:32:29.564Z,6.80
2022-11-16T16:35:01.288Z,6.80
2022-11-16T16:37:29.958Z,6.80
2022-11-16T16:39:57.285Z,6.80
2022-11-16T16:42:24.029Z,6.80
2022-11-16T16:44:51.080Z,6.70
2022-11-16T16:47:20.662Z,6.70
2022-11-16T16:49:48.601Z,6.70
2022-11-16T16:52:15.408Z,6.60
2022-11-16T16:54:42.215Z,6.60
2022-11-16T16:57:16.374Z,6.60
2022-11-16T16:59:45.390Z,6.60
2022-11-16T17:02:12.783Z,6.60
2022-11-16T17:04:39.639Z,6.60
2022-11-16T17:07:06.435Z,6.50
2022-11-16T17:09:33.167Z,6.60
2022-11-16T17:11:59.850Z,6.60
2022-11-16T17:14:26.617Z,6.70
2022-11-16T17:16:53.359Z,6.60
2022-11-16T17:19:21.028Z,6.60
2022-11-16T17:21:47.818Z,6.60
2022-11-16T17:24:14.455Z,6.60
2022-11-16T17:26:41.211Z,6.60
2022-11-16T17:29:07.866Z,6.60
2022-11-16T17:31:34.598Z,6.70
2022-11-16T17:34:01.283Z,6.60
2022-11-16T17:36:27.967Z,6.70
2022-11-16T17:38:54.626Z,6.60
2022-11-16T17:41:22.202Z,6.60
2022-11-16T17:43:52.935Z,6.60
2022-11-16T17:46:21.547Z,6.50
2022-11-16T17:48:49.760Z,6.50
2022-11-16T17:51:18.862Z,6.60
2022-11-16T17:53:45.804Z,6.60
2022-11-16T17:56:19.020Z,6.50
2022-11-16T17:58:46.339Z,6.50
2022-11-16T18:01:14.245Z,6.50
2022-11-16T18:03:41.067Z,6.50
2022-11-16T18:06:11.301Z,6.50
2022-11-16T18:08:38.035Z,6.50
2022-11-16T18:11:06.583Z,6.40
2022-11-16T18:13:34.458Z,6.50
2022-11-16T18:16:17.922Z,6.50
2022-11-16T18:18:46.329Z,6.50
2022-11-16T18:21:20.358Z,6.50
2022-11-16T18:23:47.685Z,6.50
2022-11-16T18:26:18.672Z,6.40
2022-11-16T18:28:45.764Z,6.40
2022-11-16T18:31:15.463Z,6.50
2022-11-16T18:33:42.824Z,6.50
2022-11-16T18:36:10.210Z,6.40
2022-11-16T18:38:37.582Z,6.40
2022-11-16T18:41:14.299Z,6.40
2022-11-16T18:43:47.538Z,6.40
2022-11-16T18:46:14.212Z,6.40
2022-11-16T18:48:42.751Z,6.40
2022-11-16T18:51:10.458Z,6.40
2022-11-16T18:53:37.514Z,6.30
2022-11-16T18:56:05.032Z,6.30
2022-11-16T19:01:20.967Z,6.40
2022-11-16T19:03:47.824Z,6.40
2022-11-16T19:06:17.041Z,6.40
2022-11-16T19:08:46.860Z,6.40
2022-11-16T19:11:17.021Z,6.40
2022-11-16T19:13:44.571Z,6.50
2022-11-16T19:16:13.465Z,6.40
2022-11-16T19:18:40.414Z,6.50
2022-11-16T19:21:09.644Z,6.40
2022-11-16T19:23:44.438Z,6.40
2022-11-16T19:26:12.914Z,6.40
2022-11-16T19:28:45.235Z,6.40
2022-11-16T19:31:22.904Z,6.50
2022-11-16T19:33:54.978Z,6.40
2022-11-16T19:36:21.923Z,6.40
2022-11-16T19:38:48.731Z,6.40
2022-11-16T19:41:16.823Z,6.30
2022-11-16T19:43:43.535Z,6.30
2022-11-16T19:46:12.381Z,6.30
2022-11-16T19:48:39.510Z,6.20
2022-11-16T19:51:10.101Z,6.20
2022-11-16T19:53:38.001Z,6.10
2022-11-16T19:56:06.309Z,6.10
2022-11-16T19:58:36.914Z,6.20
2022-11-16T20:01:10.198Z,6.10
2022-11-16T20:03:38.363Z,6.20
2022-11-16T20:06:05.375Z,6.10
2022-11-16T20:08:32.060Z,6.20
2022-11-16T20:10:58.715Z,6.20
2022-11-16T20:13:25.348Z,6.20
2022-11-16T20:15:51.958Z,6.20
2022-11-16T20:18:18.679Z,6.20
2022-11-16T20:20:45.362Z,6.20
2022-11-16T20:23:15.653Z,6.10
2022-11-16T20:25:42.331Z,6.20
2022-11-16T20:28:09.531Z,6.10
2022-11-16T20:30:36.209Z,6.10
2022-11-16T20:33:02.943Z,6.10
2022-11-16T20:35:29.829Z,6.10
2022-11-16T20:37:56.569Z,6.00
2022-11-16T20:40:23.210Z,6.00
2022-11-16T20:42:50.016Z,6.00
2022-11-16T20:45:16.700Z,6.00
2022-11-16T20:47:43.520Z,6.00
2022-11-16T20:50:10.250Z,6.00
2022-11-16T20:52:41.208Z,6.00
2022-11-16T20:55:10.040Z,6.00
2022-11-16T20:57:36.952Z,5.90
2022-11-16T21:00:05.131Z,5.90
2022-11-16T21:02:31.760Z,5.90
2022-11-16T21:05:00.394Z,5.90
2022-11-16T21:07:28.197Z,5.90
2022-11-16T21:10:13.502Z,5.90
2022-11-16T21:12:58.887Z,5.90
2022-11-16T21:15:25.522Z,5.90
2022-11-16T21:17:52.195Z,5.80
2022-11-16T21:20:27.795Z,5.80
2022-11-16T21:22:54.944Z,5.80
2022-11-16T21:25:21.666Z,5.70
2022-11-16T21:27:48.343Z,5.70
2022-11-16T21:30:15.169Z,5.70
2022-11-16T21:32:41.845Z,5.70
2022-11-16T21:35:08.843Z,5.70
2022-11-16T21:37:35.488Z,5.60
2022-11-16T21:40:02.117Z,5.70
2022-11-16T21:42:28.814Z,5.70
2022-11-16T21:44:55.450Z,5.60
2022-11-16T21:47:22.160Z,5.60
2022-11-16T21:50:16.920Z,5.60
2022-11-16T21:52:35.431Z,5.50
2022-11-16T21:55:02.126Z,5.60
2022-11-16T21:57:28.789Z,5.50
2022-11-16T21:59:55.460Z,5.60
2022-11-16T22:02:22.091Z,5.60
2022-11-16T22:05:07.232Z,5.60
2022-11-16T22:07:34.038Z,5.60
2022-11-16T22:10:04.390Z,5.60
2022-11-16T22:12:31.056Z,5.50
2022-11-16T22:14:58.611Z,5.40
2022-11-16T22:17:25.715Z,5.40
2022-11-16T22:19:52.319Z,5.40
2022-11-16T22:22:19.175Z,5.40
2022-11-16T22:24:46.461Z,5.40
2022-11-16T22:27:15.112Z,5.40
2022-11-16T22:29:41.829Z,5.40
2022-11-16T22:32:09.380Z,5.30
2022-11-16T22:34:36.320Z,5.20
2022-11-16T22:37:03.011Z,5.20
2022-11-16T22:39:29.672Z,5.20
2022-11-16T22:41:56.351Z,5.10
2022-11-16T22:44:22.943Z,5.10
2022-11-16T22:46:49.675Z,5.10
2022-11-16T22:49:16.332Z,5.10
2022-11-16T22:51:43.237Z,5.10
2022-11-16T22:54:11.480Z,5.10
2022-11-16T22:56:38.608Z,5.00
2022-11-16T22:59:05.704Z,5.10
2022-11-16T23:01:32.625Z,5.00
2022-11-16T23:03:59.343Z,5.00
2022-11-16T23:06:26.031Z,5.00
2022-11-16T23:08:52.714Z,5.00
2022-11-16T23:11:40.454Z,4.90
2022-11-16T23:14:29.665Z,4.80
2022-11-16T23:16:56.487Z,4.80
2022-11-16T23:19:42.278Z,4.60
2022-11-16T23:22:35.454Z,4.70
2022-11-16T23:25:20.935Z,4.60
2022-11-16T23:27:58.139Z,4.60
2022-11-16T23:30:25.761Z,4.50
2022-11-16T23:32:52.618Z,4.60
2022-11-16T23:35:19.525Z,4.50
2022-11-16T23:38:06.545Z,4.60
2022-11-16T23:40:35.818Z,4.60
2022-11-16T23:43:21.412Z,4.50
2022-11-16T23:45:49.359Z,4.60
2022-11-16T23:48:17.362Z,4.50
2022-11-16T23:50:45.592Z,4.50
2022-11-16T23:53:12.762Z,4.50
2022-11-16T23:55:40.301Z,4.50
2022-11-16T23:58:11.708Z,4.50
